Time;durP1;ratioP1;P1;durP2;ratioP2;P2;SDS_P1;SDS_P2;PMS_P1;PMS_P2;Temp;Humidity;BMP_temperature;BMP_pressure;BME280_temperature;BME280_humidity;BME280_pressure;Samples;Min_cycle;Max_cycle;Signal;HPM_P1;HPM_P2
2021/04/15 00:01:31;;;;;;;9.97;8.30;;;-1.00;99.90;;;-1.25;100.00;95714.00;2262810;56;25161;-63
2021/04/15 00:04:17;;;;;;;14.77;8.93;;;-1.10;99.90;;;-1.28;100.00;95712.00;2262170;56;26071;-63
2021/04/15 00:07:04;;;;;;;12.27;8.37;;;-1.20;99.90;;;-1.39;100.00;95709.00;2262888;56;26110;-63
2021/04/15 00:09:50;;;;;;;10.20;8.47;;;-1.10;99.90;;;-1.35;100.00;95715.00;2491559;55;26170;-63
2021/04/15 00:12:37;;;;;;;12.03;8.43;;;-1.10;99.90;;;-1.34;100.00;95713.00;2263163;56;26217;-63
2021/04/15 00:15:23;;;;;;;10.87;8.27;;;-1.10;99.90;;;-1.36;100.00;95703.00;2491086;55;26102;-63
2021/04/15 00:18:10;;;;;;;9.83;8.23;;;-1.10;99.90;;;-1.38;100.00;95703.00;2262816;56;26179;-64
2021/04/15 00:20:56;;;;;;;11.93;8.27;;;-1.30;99.90;;;-1.46;100.00;95710.00;2491326;55;26186;-63
2021/04/15 00:23:42;;;;;;;10.17;8.30;;;-1.30;99.90;;;-1.47;100.00;95713.00;2263178;56;26111;-63
2021/04/15 00:26:30;;;;;;;11.03;8.77;;;-1.30;99.90;;;-1.45;100.00;95705.00;2491370;55;26142;-63
2021/04/15 00:29:16;;;;;;;16.27;8.73;;;-1.30;99.90;;;-1.47;100.00;95704.00;2262710;56;26079;-62
2021/04/15 00:32:04;;;;;;;10.70;8.20;;;-1.30;99.90;;;-1.44;100.00;95706.00;2262860;56;26070;-63
2021/04/15 00:34:50;;;;;;;14.37;10.33;;;-1.20;99.90;;;-1.49;100.00;95710.00;2491029;55;26055;-63
2021/04/15 00:37:36;;;;;;;10.13;8.57;;;-1.20;99.90;;;-1.41;100.00;95708.00;2262845;56;26487;-63
2021/04/15 00:40:25;;;;;;;10.90;8.10;;;-1.30;99.90;;;-1.42;100.00;95714.00;2491256;55;26174;-63
2021/04/15 00:43:12;;;;;;;10.77;8.53;;;-1.30;99.90;;;-1.44;100.00;95706.00;2262847;56;26623;-63
2021/04/15 00:46:12;;;;;;;11.20;8.10;;;-1.20;99.90;;;-1.30;100.00;95709.00;2491886;55;26079;-63
2021/04/15 00:48:59;;;;;;;11.37;8.67;;;-1.20;99.90;;;-1.30;100.00;95708.00;2491346;55;26130;-64
2021/04/15 00:51:50;;;;;;;12.37;8.67;;;-1.10;99.90;;;-1.21;100.00;95706.00;2261787;56;26122;-63
2021/04/15 00:54:43;;;;;;;12.40;8.43;;;-1.10;99.90;;;-1.14;100.00;95701.00;2491630;55;26535;-63
2021/04/15 00:57:33;;;;;;;10.50;8.60;;;-1.00;99.90;;;-1.04;100.00;95704.00;2263061;56;26485;-64
2021/04/15 01:00:26;;;;;;;10.60;8.37;;;-0.90;99.90;;;-0.92;100.00;95693.00;2491292;55;26118;-63
2021/04/15 01:03:12;;;;;;;10.23;8.57;;;-0.90;99.90;;;-0.91;100.00;95693.00;2262508;56;26579;-64
2021/04/15 01:05:59;;;;;;;13.20;8.10;;;-0.80;99.90;;;-0.87;100.00;95692.00;2491155;55;26131;-63
2021/04/15 01:08:45;;;;;;;10.67;8.50;;;-1.00;99.90;;;-0.96;100.00;95703.00;2263124;56;26201;-64
2021/04/15 01:11:47;;;;;;;12.47;8.70;;;-0.90;99.90;;;-0.91;100.00;95688.00;2491479;55;26127;-63
2021/04/15 01:14:52;;;;;;;12.03;8.40;;;-1.00;99.90;;;-0.95;100.00;95684.00;2262888;56;25472;-64
2021/04/15 02:15:48;;;;;;;10.37;8.23;;;-1.30;99.90;;;-1.60;100.00;95654.00;2490366;55;26146;-63
2021/04/15 02:18:40;;;;;;;11.07;8.00;;;-1.50;99.90;;;-1.79;100.00;95665.00;2260882;56;25445;-64
2021/04/15 02:21:34;;;;;;;10.93;8.33;;;-1.60;99.90;;;-1.84;100.00;95661.00;2262445;56;26130;-64
2021/04/15 02:24:42;;;;;;;12.24;8.98;;;-1.70;99.90;;;-1.91;100.00;95663.00;2433400;55;19225139;-63
2021/04/15 02:27:39;;;;;;;13.20;9.77;;;-1.60;99.90;;;-1.80;100.00;95663.00;2491096;55;26640;-63
2021/04/15 02:30:30;;;;;;;12.40;8.87;;;-1.60;99.90;;;-1.88;100.00;95665.00;2261892;56;26211;-63
2021/04/15 02:33:22;;;;;;;12.23;8.63;;;-1.60;99.90;;;-1.57;100.00;95656.00;2262393;56;26071;-63
2021/04/15 02:36:10;;;;;;;15.70;8.53;;;-1.60;99.90;;;-1.85;100.00;95667.00;2490753;55;26515;-64
2021/04/15 02:39:04;;;;;;;13.53;9.70;;;-1.70;99.90;;;-1.95;100.00;95669.00;2262909;56;26055;-64
2021/04/15 02:41:53;;;;;;;13.33;9.57;;;-1.70;99.90;;;-1.88;100.00;95667.00;2491603;55;26489;-63
2021/04/15 02:44:46;;;;;;;11.53;9.27;;;-1.80;99.90;;;-2.02;100.00;95670.00;2263097;56;26076;-63
2021/04/15 02:47:40;;;;;;;12.83;8.90;;;-1.90;99.90;;;-2.10;100.00;95671.00;2491312;55;26090;-63
2021/04/15 02:50:28;;;;;;;11.70;9.40;;;-1.90;99.90;;;-2.18;100.00;95671.00;2261775;56;25557;-63
2021/04/15 02:53:22;;;;;;;14.90;10.43;;;-1.90;99.90;;;-2.19;100.00;95670.00;2491518;55;26134;-63
2021/04/15 02:56:16;;;;;;;14.97;9.67;;;-1.90;99.90;;;-2.15;100.00;95672.00;2491331;55;25225;-63
2021/04/15 02:59:07;;;;;;;12.37;9.33;;;-1.90;99.90;;;-2.17;100.00;95678.00;2262814;56;26087;-63
2021/04/15 03:02:01;;;;;;;14.43;9.93;;;-1.90;99.90;;;-2.15;100.00;95672.00;2491493;55;26067;-63
2021/04/15 03:04:53;;;;;;;13.57;9.70;;;-1.90;99.90;;;-2.11;100.00;95681.00;2262421;56;25445;-64
2021/04/15 03:07:43;;;;;;;13.27;10.00;;;-2.00;99.90;;;-2.22;100.00;95680.00;2491309;55;26099;-63
2021/04/15 03:10:35;;;;;;;15.07;10.47;;;-2.00;99.90;;;-2.17;100.00;95673.00;2491021;55;26131;-63
2021/04/15 03:13:25;;;;;;;12.23;9.83;;;-1.90;99.90;;;-2.20;100.00;95674.00;2262808;56;26051;-63
2021/04/15 03:16:14;;;;;;;13.57;10.33;;;-2.00;99.90;;;-2.29;100.00;95672.00;2491188;55;26114;-63
2021/04/15 03:19:04;;;;;;;14.80;10.00;;;-2.00;99.90;;;-2.34;100.00;95672.00;2262052;56;26063;-63
2021/04/15 03:22:01;;;;;;;12.83;9.67;;;-2.10;99.90;;;-2.37;100.00;95676.00;2491051;55;26142;-63
2021/04/15 03:24:52;;;;;;;13.23;9.87;;;-2.20;99.90;;;-2.44;100.00;95683.00;2262955;56;25062;-63
2021/04/15 03:27:46;;;;;;;14.33;9.80;;;-2.10;99.90;;;-2.43;100.00;95685.00;2491314;55;26067;-63
2021/04/15 03:30:43;;;;;;;14.73;10.47;;;-2.10;99.90;;;-2.36;100.00;95683.00;2490945;55;26669;-63
2021/04/15 03:33:40;;;;;;;14.20;10.60;;;-2.10;99.90;;;-2.46;100.00;95684.00;2262601;56;26388;-63
2021/04/15 03:36:32;;;;;;;14.73;9.93;;;-2.20;99.90;;;-2.55;100.00;95678.00;2262588;56;26647;-63
2021/04/15 03:39:25;;;;;;;14.53;10.30;;;-2.20;99.90;;;-2.54;100.00;95676.00;2491425;55;26136;-63
2021/04/15 03:42:24;;;;;;;13.77;10.23;;;-2.30;99.90;;;-2.55;100.00;95675.00;2262835;56;26067;-63
2021/04/15 03:45:20;;;;;;;13.30;9.50;;;-2.40;99.90;;;-2.64;100.00;95683.00;2491622;55;26575;-63
2021/04/15 03:48:17;;;;;;;15.07;10.90;;;-2.40;99.90;;;-2.71;100.00;95677.00;2491725;55;26118;-64
2021/04/15 03:51:10;;;;;;;13.93;10.03;;;-2.50;99.90;;;-2.69;100.00;95683.00;2262479;56;26067;-63
2021/04/15 03:54:02;;;;;;;13.93;10.10;;;-2.50;99.90;;;-2.74;100.00;95677.00;2262972;56;26505;-63
2021/04/15 03:56:55;;;;;;;14.37;10.67;;;-2.50;99.90;;;-2.74;100.00;95679.00;2491736;55;26556;-63
2021/04/15 03:59:46;;;;;;;14.03;9.90;;;-2.50;99.90;;;-2.80;100.00;95678.00;2262893;56;26086;-63
2021/04/15 04:02:39;;;;;;;14.63;10.57;;;-2.60;99.90;;;-2.86;100.00;95675.00;2491564;55;26202;-63
2021/04/15 04:05:34;;;;;;;12.90;8.63;;;-2.60;99.90;;;-2.83;100.00;95680.00;2262252;56;26173;-62
2021/04/15 04:08:27;;;;;;;12.70;9.33;;;-2.70;99.90;;;-2.90;100.00;95679.00;2262319;56;26126;-62
2021/04/15 04:11:16;;;;;;;12.50;9.07;;;-2.70;99.90;;;-2.94;100.00;95681.00;2491602;55;26158;-62
2021/04/15 04:14:09;;;;;;;13.23;9.10;;;-2.80;99.90;;;-3.03;100.00;95675.00;2263140;56;26163;-64
2021/04/15 04:17:04;;;;;;;13.13;9.70;;;-2.80;99.90;;;-3.03;100.00;95675.00;2491833;55;26184;-63
2021/04/15 04:19:54;;;;;;;13.30;8.87;;;-2.70;99.90;;;-2.98;100.00;95685.00;2262539;56;25067;-63
2021/04/15 04:22:50;;;;;;;14.67;9.60;;;-2.70;99.90;;;-2.90;100.00;95682.00;2491496;55;26441;-63
2021/04/15 04:25:42;;;;;;;14.67;9.47;;;-2.70;99.90;;;-2.91;100.00;95678.00;2491297;55;26111;-63
2021/04/15 04:28:37;;;;;;;14.23;9.60;;;-2.80;99.90;;;-3.04;100.00;95685.00;2263059;56;26095;-63
2021/04/15 04:31:29;;;;;;;11.57;8.60;;;-2.80;99.90;;;-3.10;100.00;95680.00;2490403;55;26228;-63
2021/04/15 04:34:19;;;;;;;14.13;9.63;;;-2.90;99.90;;;-3.10;100.00;95679.00;2262224;56;26580;-63
2021/04/15 04:37:09;;;;;;;13.27;9.30;;;-2.90;99.90;;;-3.03;100.00;95686.00;2262548;56;26150;-64
2021/04/15 04:40:00;;;;;;;13.53;9.57;;;-2.80;99.90;;;-3.00;100.00;95680.00;2261914;56;25252;-64
2021/04/15 04:42:52;;;;;;;13.77;10.47;;;-2.80;99.90;;;-2.93;100.00;95685.00;2261504;56;26067;-63
2021/04/15 04:45:38;;;;;;;16.57;11.30;;;-2.70;99.90;;;-2.93;100.00;95684.00;2491565;55;26557;-63
2021/04/15 04:48:31;;;;;;;14.67;10.07;;;-2.80;99.90;;;-2.90;100.00;95693.00;2262907;56;26059;-63
2021/04/15 04:51:20;;;;;;;14.00;10.20;;;-2.90;99.90;;;-2.97;100.00;95699.00;2490682;55;26618;-63
2021/04/15 04:54:07;;;;;;;15.53;10.77;;;-2.80;99.90;;;-2.86;100.00;95694.00;2263173;56;26086;-64
2021/04/15 04:57:03;;;;;;;14.07;9.70;;;-2.90;99.90;;;-2.89;100.00;95694.00;2263134;56;26159;-63
2021/04/15 04:59:58;;;;;;;15.90;10.93;;;-2.80;99.90;;;-2.81;100.00;95694.00;2263405;56;26139;-63
2021/04/15 05:02:49;;;;;;;16.93;11.03;;;-2.80;99.90;;;-2.64;100.00;95698.00;2491572;55;25477;-63
2021/04/15 05:05:36;;;;;;;18.37;10.90;;;-2.60;99.90;;;-2.55;100.00;95682.00;2262470;56;26453;-63
2021/04/15 05:08:28;;;;;;;18.23;11.00;;;-2.50;99.90;;;-2.41;100.00;95699.00;2491689;55;26568;-63
2021/04/15 05:11:15;;;;;;;17.60;12.50;;;-2.50;99.90;;;-2.47;100.00;95691.00;2262754;56;26058;-63
2021/04/15 05:14:04;;;;;;;15.33;10.60;;;-2.40;99.90;;;-2.23;100.00;95697.00;2491845;55;26066;-63
2021/04/15 05:17:13;;;;;;;14.67;11.20;;;-2.40;99.90;;;-2.21;100.00;95698.00;2263227;56;26135;-63
2021/04/15 05:20:03;;;;;;;15.20;11.70;;;-2.40;99.90;;;-2.23;100.00;95694.00;2490995;55;26110;-63
2021/04/15 05:22:57;;;;;;;16.00;11.50;;;-2.40;99.90;;;-2.15;100.00;95697.00;2263197;56;26151;-63
2021/04/15 05:26:07;;;;;;;13.90;10.73;;;-2.40;99.90;;;-2.10;100.00;95697.00;2491618;55;26106;-63
2021/04/15 05:28:58;;;;;;;15.93;12.10;;;-2.10;99.90;;;-1.61;100.00;95696.00;2491574;55;26174;-63
2021/04/15 05:31:47;;;;;;;16.53;11.37;;;-1.90;99.90;;;-1.51;100.00;95690.00;2263205;56;26105;-63
2021/04/15 05:34:40;;;;;;;16.10;11.67;;;-1.80;99.90;;;-1.58;100.00;95691.00;2490839;55;26058;-63
2021/04/15 05:37:29;;;;;;;15.10;11.53;;;-1.90;99.90;;;-1.54;100.00;95689.00;2491137;55;26098;-63
2021/04/15 05:40:16;;;;;;;14.67;11.37;;;-1.80;99.90;;;-1.40;100.00;95698.00;2263046;56;26100;-63
2021/04/15 05:43:25;;;;;;;16.80;11.50;;;-1.70;99.90;;;-1.26;100.00;95692.00;2262890;56;26080;-63
2021/04/15 05:46:18;;;;;;;18.07;12.80;;;-1.60;99.90;;;-1.13;100.00;95695.00;2491304;55;26280;-63
2021/04/15 05:49:06;;;;;;;15.20;11.90;;;-1.30;99.90;;;-0.72;100.00;95689.00;2262721;56;26110;-63
2021/04/15 05:52:00;;;;;;;19.10;12.17;;;-1.20;99.90;;;-0.80;100.00;95682.00;2490954;55;26074;-63
2021/04/15 05:54:48;;;;;;;16.53;11.80;;;-1.20;99.90;;;-0.80;100.00;95686.00;2263134;56;25575;-63
2021/04/15 05:57:39;;;;;;;16.80;13.20;;;-1.20;99.90;;;-0.77;100.00;95682.00;2491478;55;26070;-63
2021/04/15 06:00:38;;;;;;;18.67;13.23;;;-1.00;99.90;;;-0.59;100.00;95682.00;2262642;56;26557;-64
2021/04/15 06:03:38;;;;;;;21.30;14.87;;;-1.00;99.90;;;-0.48;100.00;95688.00;2491551;55;26055;-63
2021/04/15 06:06:31;;;;;;;21.83;15.73;;;-0.90;99.90;;;-0.40;100.00;95689.00;2490603;55;26599;-63
2021/04/15 06:09:19;;;;;;;19.23;14.53;;;-0.90;99.90;;;-0.46;100.00;95691.00;2262659;56;26507;-63
2021/04/15 06:12:15;;;;;;;20.90;14.70;;;-0.80;99.90;;;-0.43;100.00;95686.00;2490450;55;26134;-63
2021/04/15 06:15:09;;;;;;;16.43;12.87;;;-0.80;99.90;;;-0.38;100.00;95697.00;2491527;55;26094;-64
2021/04/15 06:18:04;;;;;;;20.20;13.80;;;-0.80;99.90;;;-0.26;100.00;95696.00;2263113;56;26185;-63
2021/04/15 06:20:58;;;;;;;17.70;12.90;;;-0.70;99.90;;;-0.09;100.00;95696.00;2262659;56;26548;-64
2021/04/15 06:23:50;;;;;;;14.53;11.60;;;-0.50;99.90;;;0.13;100.00;95696.00;2492067;55;26568;-63
2021/04/15 06:26:46;;;;;;;16.97;12.60;;;-0.30;99.90;;;0.32;100.00;95699.00;2263574;56;26587;-62
2021/04/15 06:29:41;;;;;;;16.80;12.03;;;-0.40;99.90;;;0.26;100.00;95696.00;2263068;56;26083;-66
2021/04/15 06:32:36;;;;;;;18.40;12.80;;;-0.10;99.90;;;0.68;100.00;95701.00;2492274;55;25132;-62
2021/04/15 06:35:27;;;;;;;17.13;13.63;;;0.10;99.90;;;1.23;100.00;95688.00;2262655;56;26116;-63
2021/04/15 06:38:22;;;;;;;17.23;12.10;;;0.20;99.90;;;1.16;100.00;95685.00;2491747;55;26056;-62
2021/04/15 06:42:07;;;;;;;15.27;11.60;;;0.50;99.90;;;1.61;100.00;95684.00;2491208;55;26579;-62
2021/04/15 06:45:33;;;;;;;17.07;11.63;;;0.70;99.90;;;1.83;100.00;95685.00;2491448;55;26078;-63
2021/04/15 06:49:21;;;;;;;12.30;9.63;;;1.00;99.90;;;1.87;100.00;95685.00;2262342;56;26095;-63
2021/04/15 06:52:20;;;;;;;12.87;9.67;;;0.70;99.90;;;1.79;100.00;95694.00;2491350;55;26142;-63
2021/04/15 06:55:27;;;;;;;13.60;9.90;;;0.60;99.90;;;2.08;100.00;95693.00;2263026;56;26103;-64
2021/04/15 06:58:42;;;;;;;13.30;9.80;;;0.90;99.90;;;2.13;100.00;95688.00;2262662;56;26165;-63
2021/04/15 07:01:50;;;;;;;11.07;9.40;;;0.90;99.90;;;1.85;100.00;95689.00;2491110;55;26631;-62
2021/04/15 07:04:46;;;;;;;12.33;10.33;;;1.20;99.90;;;2.38;100.00;95691.00;2491246;55;26073;-62
2021/04/15 07:07:38;;;;;;;13.83;10.30;;;1.20;99.90;;;2.46;100.00;95688.00;2491676;55;26071;-62
2021/04/15 07:11:14;;;;;;;12.70;9.90;;;1.30;99.90;;;3.02;100.00;95684.00;2263216;56;26057;-62
2021/04/15 07:14:27;;;;;;;12.27;9.37;;;2.50;99.90;;;3.98;100.00;95677.00;2489219;55;26516;-62
2021/04/15 07:17:41;;;;;;;13.80;10.03;;;2.00;99.90;;;3.37;100.00;95682.00;2263322;56;26051;-62
2021/04/15 07:20:53;;;;;;;16.33;9.37;;;2.00;99.90;;;3.38;100.00;95687.00;2262373;56;26623;-62
2021/04/15 07:24:48;;;;;;;10.47;8.87;;;2.50;99.90;;;4.73;100.00;95686.00;2262336;56;26673;-62
2021/04/15 07:28:14;;;;;;;8.87;7.60;;;3.90;99.90;;;7.39;100.00;95678.00;2491905;55;26141;-62
2021/04/15 07:31:58;;;;;;;13.43;8.57;;;4.70;99.90;;;7.23;100.00;95681.00;2263285;56;26476;-62
2021/04/15 07:35:22;;;;;;;10.17;8.80;;;3.70;99.90;;;5.73;100.00;95691.00;2262788;56;26134;-62
2021/04/15 07:38:49;;;;;;;10.00;9.00;;;3.60;99.90;;;5.49;100.00;95686.00;2491648;55;26167;-62
2021/04/15 07:41:57;;;;;;;11.63;9.60;;;3.90;99.90;;;6.32;100.00;95691.00;2257564;56;26531;-62
2021/04/15 07:44:47;;;;;;;10.27;9.13;;;4.90;99.90;;;8.25;100.00;95684.00;2263222;56;26115;-62
2021/04/15 07:48:14;;;;;;;11.17;9.17;;;4.30;99.90;;;7.04;100.00;95690.00;2491967;55;26119;-62
2021/04/15 07:51:46;;;;;;;11.60;9.70;;;4.10;99.90;;;7.03;100.00;95694.00;2262671;56;26054;-62
2021/04/15 07:55:33;;;;;;;10.77;8.97;;;4.80;99.90;;;6.93;100.00;95694.00;2491523;55;26083;-63
2021/04/15 07:58:59;;;;;;;10.90;8.73;;;4.10;99.90;;;5.53;100.00;95688.00;2262750;56;26647;-61
2021/04/15 08:02:20;;;;;;;12.50;9.93;;;3.70;99.90;;;5.76;100.00;95699.00;2491769;55;26252;-61
2021/04/15 08:05:42;;;;;;;10.73;9.30;;;3.80;99.90;;;5.42;100.00;95703.00;2262431;56;26544;-61
2021/04/15 08:09:08;;;;;;;14.40;10.87;;;3.90;99.90;;;5.36;100.00;95698.00;2262890;56;26515;-61
2021/04/15 08:12:27;;;;;;;12.40;10.17;;;3.60;99.90;;;5.01;100.00;95707.00;2262961;56;26474;-61
2021/04/15 08:15:41;;;;;;;15.33;11.03;;;3.80;99.90;;;5.02;100.00;95709.00;2262615;56;26170;-62
2021/04/15 08:18:42;;;;;;;12.57;10.73;;;3.60;99.90;;;4.72;100.00;95701.00;2491095;55;26166;-62
2021/04/15 08:21:37;;;;;;;13.37;10.33;;;3.20;99.90;;;4.26;100.00;95708.00;2262142;56;26131;-61
2021/04/15 08:24:41;;;;;;;11.57;9.93;;;3.60;99.90;;;4.91;100.00;95709.00;2262808;56;26115;-62
2021/04/15 08:28:14;;;;;;;12.20;10.00;;;4.10;99.90;;;5.52;100.00;95705.00;2262822;56;26087;-61
2021/04/15 08:31:13;;;;;;;10.93;8.47;;;3.80;99.90;;;4.86;100.00;95706.00;2491866;55;26106;-61
2021/04/15 08:34:14;;;;;;;10.10;7.60;;;4.00;99.90;;;5.46;100.00;95703.00;2491417;55;26062;-61
2021/04/15 08:37:35;;;;;;;9.30;7.77;;;4.60;99.90;;;6.79;100.00;95698.00;2262750;56;26599;-61
2021/04/15 08:40:50;;;;;;;10.53;7.07;;;4.70;99.90;;;6.40;100.00;95703.00;2491200;55;26539;-62
2021/04/15 08:43:55;;;;;;;7.57;6.20;;;4.90;99.90;;;7.06;100.00;95703.00;2263045;56;26071;-62
2021/04/15 08:46:49;;;;;;;7.17;5.80;;;6.10;99.90;;;8.74;100.00;95700.00;2263009;56;26115;-62
2021/04/15 08:49:46;;;;;;;8.27;6.67;;;6.90;99.90;;;10.03;100.00;95684.00;2490996;55;26076;-62
2021/04/15 08:52:44;;;;;;;7.53;6.07;;;6.50;99.90;;;9.33;100.00;95685.00;2262648;56;26094;-61
2021/04/15 08:55:39;;;;;;;7.50;6.07;;;7.60;99.90;;;11.17;95.07;95686.00;2262854;56;26102;-62
2021/04/15 08:58:56;;;;;;;7.63;6.10;;;7.10;99.90;;;9.80;85.66;95682.00;2491170;55;26074;-63
2021/04/15 09:01:56;;;;;;;7.77;5.83;;;5.80;99.90;;;6.66;100.00;95688.00;2262522;56;26488;-64
2021/04/15 09:05:17;;;;;;;6.60;5.67;;;4.60;99.90;;;5.66;100.00;95691.00;2490931;55;26067;-64
2021/04/15 09:08:16;;;;;;;6.83;5.30;;;4.20;99.90;;;5.03;100.00;95689.00;2262313;56;26175;-62
2021/04/15 09:11:13;;;;;;;5.53;4.23;;;4.60;99.90;;;5.89;100.00;95690.00;2262934;56;26156;-63
2021/04/15 09:14:05;;;;;;;5.90;3.93;;;6.90;99.90;;;10.01;66.69;95670.00;2491275;55;26143;-63
2021/04/15 09:17:01;;;;;;;5.60;4.30;;;8.60;99.90;;;10.33;61.50;95672.00;2262640;56;26675;-64
2021/04/15 09:20:04;;;;;;;6.27;4.30;;;8.00;99.90;;;8.43;68.58;95677.00;2262203;56;26489;-64
2021/04/15 09:23:42;;;;;;;5.40;3.80;;;6.50;99.90;;;6.71;78.69;95681.00;2491769;55;26151;-64
2021/04/15 09:27:10;;;;;;;5.67;4.00;;;6.10;99.90;;;6.80;81.12;95674.00;2484348;55;26586;-63
2021/04/15 09:30:17;;;;;;;5.23;3.50;;;9.50;99.90;;;13.11;54.95;95667.00;2262556;56;26099;-63
2021/04/15 09:33:16;;;;;;;4.75;3.15;;;14.10;96.20;;;16.66;36.04;95655.00;2491559;55;26149;-64
2021/04/15 09:36:21;;;;;;;5.12;3.20;;;15.00;91.20;;;17.22;32.40;95651.00;2262483;56;26051;-64
2021/04/15 09:39:35;;;;;;;5.28;3.87;;;15.70;90.70;;;18.66;31.39;95650.00;2263246;56;26581;-63
2021/04/15 09:43:04;;;;;;;5.47;4.07;;;14.90;90.30;;;18.11;31.59;95644.00;2491593;55;26083;-63
2021/04/15 09:46:12;;;;;;;4.85;3.85;;;12.80;93.20;;;15.72;38.40;95651.00;2263177;56;26563;-63
2021/04/15 09:49:23;;;;;;;3.72;3.33;;;10.80;97.50;;;14.11;44.07;95654.00;2262678;56;26220;-64
2021/04/15 09:52:43;;;;;;;4.53;3.23;;;8.20;98.20;;;9.31;55.71;95669.00;2262862;56;26604;-63
2021/04/15 09:56:06;;;;;;;5.80;3.50;;;6.80;99.70;;;7.90;64.29;95666.00;2262868;56;26159;-63
2021/04/15 09:59:03;;;;;;;5.63;4.00;;;6.40;99.90;;;7.21;77.07;95668.00;2262779;56;26055;-63
2021/04/15 10:01:56;;;;;;;4.93;3.90;;;5.60;99.90;;;6.30;100.00;95670.00;2491479;55;26215;-63
2021/04/15 10:04:52;;;;;;;8.37;4.03;;;5.10;99.90;;;5.86;100.00;95673.00;2262702;56;26235;-63
2021/04/15 10:07:46;;;;;;;6.00;3.70;;;4.70;99.90;;;5.41;100.00;95679.00;2263207;56;26122;-63
2021/04/15 10:10:43;;;;;;;5.60;4.00;;;4.70;99.90;;;5.29;100.00;95677.00;2491262;55;26081;-63
2021/04/15 10:13:43;;;;;;;5.70;4.17;;;4.60;99.90;;;5.27;100.00;95678.00;2262656;56;26090;-64
2021/04/15 10:16:42;;;;;;;5.47;3.93;;;4.60;99.90;;;5.05;100.00;95670.00;2262214;56;26126;-62
2021/04/15 10:20:11;;;;;;;5.87;3.43;;;4.40;99.90;;;5.17;100.00;95680.00;2491159;55;26119;-63
2021/04/15 10:23:41;;;;;;;4.20;3.20;;;4.60;99.90;;;5.20;100.00;95678.00;2491721;55;26583;-63
2021/04/15 10:27:23;;;;;;;4.57;3.27;;;4.10;99.90;;;4.75;100.00;95682.00;2262715;56;26131;-64
2021/04/15 10:31:00;;;;;;;7.20;4.00;;;4.20;99.90;;;4.94;100.00;95680.00;2262339;56;26210;-64
2021/04/15 10:34:51;;;;;;;4.67;3.67;;;4.00;99.90;;;4.59;100.00;95679.00;2262597;56;26475;-63
2021/04/15 10:38:40;;;;;;;5.93;4.73;;;4.20;99.90;;;5.00;100.00;95668.00;2262896;56;26516;-63
2021/04/15 10:42:10;;;;;;;4.93;3.87;;;4.30;99.90;;;5.29;100.00;95669.00;2491327;55;26670;-63
2021/04/15 10:45:23;;;;;;;7.97;4.50;;;4.70;99.90;;;5.21;100.00;95663.00;2262874;56;26532;-61
2021/04/15 10:48:39;;;;;;;6.57;3.70;;;4.90;99.90;;;5.73;100.00;95658.00;2491034;55;26172;-61
2021/04/15 10:51:34;;;;;;;4.60;4.20;;;4.90;99.90;;;5.89;100.00;95656.00;2490139;55;26515;-61
2021/04/15 10:54:27;;;;;;;5.07;3.80;;;5.60;99.90;;;6.82;97.91;95658.00;2488330;55;26086;-61
2021/04/15 10:57:20;;;;;;;5.60;3.70;;;6.50;99.90;;;8.09;81.10;95655.00;2261660;56;26589;-61
2021/04/15 11:00:30;;;;;;;4.40;3.27;;;7.30;99.90;;;9.06;73.75;95645.00;2491551;55;26071;-61
2021/04/15 11:03:20;;;;;;;4.67;3.37;;;8.70;99.90;;;9.91;58.80;95632.00;2491697;55;26178;-61
2021/04/15 11:06:10;;;;;;;5.03;4.50;;;9.80;98.90;;;11.80;50.58;95637.00;2262363;56;26162;-61
2021/04/15 11:09:13;;;;;;;8.43;4.13;;;10.50;97.70;;;12.88;45.84;95631.00;2262776;56;26055;-62
2021/04/15 11:12:05;;;;;;;6.47;4.00;;;10.40;99.40;;;11.62;52.16;95625.00;2491392;55;26093;-61
2021/04/15 11:15:17;;;;;;;7.03;4.07;;;11.80;94.90;;;13.75;40.50;95624.00;2491579;55;26117;-62
2021/04/15 11:18:10;;;;;;;5.25;3.80;;;12.00;93.60;;;13.72;39.95;95614.00;2491466;55;26662;-62
2021/04/15 11:21:16;;;;;;;6.45;4.12;;;11.10;95.40;;;14.15;40.66;95613.00;2262071;56;26606;-61
2021/04/15 11:24:26;;;;;;;4.90;3.72;;;11.30;95.30;;;15.38;38.78;95595.00;2262739;56;26110;-62
2021/04/15 11:27:33;;;;;;;4.82;4.32;;;16.90;86.20;;;18.63;30.06;95591.00;2491349;55;26142;-62
2021/04/15 11:30:43;;;;;;;31.27;24.73;;;13.10;90.30;;;15.00;36.88;95597.00;2491105;55;26635;-62
2021/04/15 11:33:40;;;;;;;4.45;3.95;;;11.50;91.40;;;12.83;38.33;95598.00;2491476;55;26184;-62
2021/04/15 11:36:29;;;;;;;6.97;4.10;;;9.00;95.90;;;9.78;50.68;95624.00;2262510;56;26090;-61
2021/04/15 11:39:24;;;;;;;5.23;3.87;;;6.90;97.80;;;7.65;61.44;95620.00;2262726;56;26058;-61
2021/04/15 11:42:14;;;;;;;4.53;3.40;;;6.30;98.90;;;7.07;68.76;95603.00;2491256;55;26067;-61
2021/04/15 11:45:01;;;;;;;4.40;3.10;;;6.00;98.60;;;6.78;68.95;95617.00;2263075;56;26209;-61
2021/04/15 11:47:47;;;;;;;5.20;4.00;;;5.90;97.40;;;6.72;64.26;95616.00;2491499;55;26155;-62
2021/04/15 11:50:34;;;;;;;6.03;3.53;;;5.90;98.20;;;6.45;68.01;95621.00;2262641;56;26127;-61
2021/04/15 11:53:51;;;;;;;5.83;3.40;;;5.40;98.50;;;5.89;72.72;95624.00;2263347;56;26043;-61
2021/04/15 11:56:38;;;;;;;3.37;2.97;;;5.40;99.10;;;5.90;76.38;95623.00;2486087;55;26107;-61
2021/04/15 11:59:32;;;;;;;5.20;3.43;;;5.20;97.50;;;5.80;68.37;95620.00;2261051;56;26473;-61
2021/04/15 12:02:34;;;;;;;5.23;3.43;;;5.10;97.60;;;5.66;68.52;95618.00;2487899;55;26187;-61
2021/04/15 12:05:27;;;;;;;5.07;3.33;;;5.10;98.50;;;5.69;73.51;95628.00;2490410;55;26672;-61
2021/04/15 12:08:22;;;;;;;5.27;3.60;;;5.70;97.20;;;6.59;63.25;95632.00;2262184;56;26240;-62
2021/04/15 12:11:20;;;;;;;5.27;3.23;;;6.00;97.40;;;6.60;64.80;95628.00;2262706;56;26115;-61
2021/04/15 12:14:11;;;;;;;4.23;3.30;;;5.40;97.90;;;5.49;71.22;95631.00;2490804;55;26576;-61
2021/04/15 12:17:07;;;;;;;4.20;3.00;;;5.30;95.50;;;5.51;61.63;95628.00;2262876;56;26143;-61
2021/04/15 12:20:04;;;;;;;5.67;3.37;;;5.10;96.80;;;5.69;63.76;95623.00;2262818;56;26170;-61
2021/04/15 12:23:07;;;;;;;3.70;3.10;;;5.50;95.20;;;5.95;58.96;95620.00;2491100;55;26209;-61
2021/04/15 12:25:58;;;;;;;3.83;3.20;;;5.80;94.90;;;6.32;56.88;95618.00;2491181;55;26592;-61
2021/04/15 12:28:51;;;;;;;3.23;2.77;;;6.00;95.70;;;6.57;59.08;95618.00;2262891;56;26111;-61
2021/04/15 12:31:47;;;;;;;5.63;3.17;;;6.20;97.10;;;6.73;64.09;95608.00;2491834;55;26098;-61
2021/04/15 12:34:57;;;;;;;4.67;3.20;;;6.30;96.10;;;6.64;61.09;95612.00;2263090;56;26091;-61
2021/04/15 12:37:49;;;;;;;5.33;3.33;;;6.30;96.10;;;6.83;59.56;95616.00;2491405;55;26519;-61
2021/04/15 12:40:39;;;;;;;5.90;3.00;;;6.20;96.10;;;6.60;60.60;95615.00;2263024;56;26261;-61
2021/04/15 12:43:29;;;;;;;7.20;3.33;;;6.40;95.80;;;6.89;59.56;95612.00;2491319;55;26084;-61
2021/04/15 12:46:19;;;;;;;4.00;3.13;;;6.60;95.50;;;7.12;57.30;95607.00;2262817;56;26567;-62
2021/04/15 12:49:10;;;;;;;5.47;3.87;;;6.50;95.50;;;7.11;57.02;95608.00;2491274;55;26511;-61
2021/04/15 12:52:00;;;;;;;4.83;3.90;;;6.70;96.20;;;7.37;58.20;95604.00;2262722;56;26848;-61
2021/04/15 12:54:47;;;;;;;5.17;3.73;;;6.80;95.30;;;7.32;56.02;95607.00;2491590;55;26204;-62
2021/04/15 12:57:33;;;;;;;4.53;3.53;;;6.00;97.50;;;6.78;64.08;95602.00;2262250;56;26594;-62
2021/04/15 13:00:34;;;;;;;4.13;3.70;;;5.80;98.70;;;6.61;70.02;95596.00;2262775;56;26046;-62
2021/04/15 13:03:27;;;;;;;4.70;4.20;;;5.80;99.50;;;6.69;75.31;95602.00;2262995;56;26107;-62
2021/04/15 13:06:16;;;;;;;6.23;4.07;;;5.70;99.80;;;6.45;76.65;95600.00;2490633;55;26079;-62
2021/04/15 13:09:02;;;;;;;10.73;7.07;;;5.80;98.50;;;6.63;70.56;95588.00;2262443;56;26047;-61
2021/04/15 13:11:49;;;;;;;9.47;6.50;;;5.70;98.80;;;6.64;70.92;95590.00;2491894;55;26107;-62
2021/04/15 13:14:42;;;;;;;6.60;3.87;;;5.90;98.60;;;7.18;68.27;95600.00;2263010;56;26063;-62
2021/04/15 13:17:51;;;;;;;6.03;4.03;;;6.80;97.00;;;7.79;60.18;95595.00;2262672;56;26082;-62
2021/04/15 13:20:44;;;;;;;5.87;3.93;;;6.80;96.80;;;7.09;62.11;95589.00;2262995;56;26870;-62
2021/04/15 13:23:44;;;;;;;7.20;3.93;;;6.10;98.90;;;6.78;71.83;95584.00;2491339;55;26151;-62
2021/04/15 13:26:37;;;;;;;7.40;4.30;;;6.50;98.70;;;7.75;67.03;95583.00;2262512;56;26199;-61
2021/04/15 13:29:25;;;;;;;6.23;4.03;;;6.60;98.00;;;7.06;66.90;95578.00;2262085;56;26580;-62